sensor_id;sensor_type;location;lat;lon;timestamp;temperature;humidity
3051;DHT22;1535;51.098;6.414;2023-09-19T00:00:17;15.30;99.90
3051;DHT22;1535;51.098;6.414;2023-09-19T00:02:46;15.30;99.90
3051;DHT22;1535;51.098;6.414;2023-09-19T00:05:13;15.40;99.90
3051;DHT22;1535;51.098;6.414;2023-09-19T00:07:41;15.40;99.90
3051;DHT22;1535;51.098;6.414;2023-09-19T00:10:11;15.40;99.90
3051;DHT22;1535;51.098;6.414;2023-09-19T00:12:42;15.40;99.90
3051;DHT22;1535;51.098;6.414;2023-09-19T00:15:09;15.30;99.90
3051;DHT22;1535;51.098;6.414;2023-09-19T00:17:38;15.40;99.90
3051;DHT22;1535;51.098;6.414;2023-09-19T00:20:07;15.30;99.90
3051;DHT22;1535;51.098;6.414;2023-09-19T00:22:40;15.30;99.90
3051;DHT22;1535;51.098;6.414;2023-09-19T00:25:08;15.30;99.90
3051;DHT22;1535;51.098;6.414;2023-09-19T00:27:38;15.30;99.90
3051;DHT22;1535;51.098;6.414;2023-09-19T00:30:09;15.20;99.90
3051;DHT22;1535;51.098;6.414;2023-09-19T00:32:42;15.20;99.90
3051;DHT22;1535;51.098;6.414;2023-09-19T00:35:10;15.20;99.90
3051;DHT22;1535;51.098;6.414;2023-09-19T00:37:37;15.20;99.90
3051;DHT22;1535;51.098;6.414;2023-09-19T00:40:06;15.20;99.90
3051;DHT22;1535;51.098;6.414;2023-09-19T00:42:38;15.20;99.90
3051;DHT22;1535;51.098;6.414;2023-09-19T00:45:06;15.20;99.90
3051;DHT22;1535;51.098;6.414;2023-09-19T00:47:35;15.10;99.90
3051;DHT22;1535;51.098;6.414;2023-09-19T00:50:04;15.20;99.90
3051;DHT22;1535;51.098;6.414;2023-09-19T00:52:33;15.10;99.90
3051;DHT22;1535;51.098;6.414;2023-09-19T00:55:02;15.20;99.90
3051;DHT22;1535;51.098;6.414;2023-09-19T00:57:30;15.10;99.90
3051;DHT22;1535;51.098;6.414;2023-09-19T01:00:00;15.10;99.90
3051;DHT22;1535;51.098;6.414;2023-09-19T01:02:31;15.10;99.90
3051;DHT22;1535;51.098;6.414;2023-09-19T01:04:59;15.10;99.90
3051;DHT22;1535;51.098;6.414;2023-09-19T01:07:30;15.10;99.90
3051;DHT22;1535;51.098;6.414;2023-09-19T01:09:59;15.10;99.90
3051;DHT22;1535;51.098;6.414;2023-09-19T01:12:33;15.10;99.90
3051;DHT22;1535;51.098;6.414;2023-09-19T01:15:11;15.10;99.90
3051;DHT22;1535;51.098;6.414;2023-09-19T01:17:46;15.10;99.90
3051;DHT22;1535;51.098;6.414;2023-09-19T01:20:27;15.10;99.90
3051;DHT22;1535;51.098;6.414;2023-09-19T01:23:08;15.10;99.90
3051;DHT22;1535;51.098;6.414;2023-09-19T01:26:03;15.10;99.90
3051;DHT22;1535;51.098;6.414;2023-09-19T01:28:39;15.10;99.90
3051;DHT22;1535;51.098;6.414;2023-09-19T01:31:11;15.10;99.90
3051;DHT22;1535;51.098;6.414;2023-09-19T01:33:55;15.10;99.90
3051;DHT22;1535;51.098;6.414;2023-09-19T01:36:26;15.20;99.90
3051;DHT22;1535;51.098;6.414;2023-09-19T01:38:54;15.20;99.90
3051;DHT22;1535;51.098;6.414;2023-09-19T01:41:26;15.20;99.90
3051;DHT22;1535;51.098;6.414;2023-09-19T01:43:59;15.20;99.90
3051;DHT22;1535;51.098;6.414;2023-09-19T01:46:34;15.20;99.90
3051;DHT22;1535;51.098;6.414;2023-09-19T01:49:10;15.20;99.90
3051;DHT22;1535;51.098;6.414;2023-09-19T01:51:53;15.20;99.90
3051;DHT22;1535;51.098;6.414;2023-09-19T01:54:26;15.20;99.90
3051;DHT22;1535;51.098;6.414;2023-09-19T01:56:59;15.20;99.90
3051;DHT22;1535;51.098;6.414;2023-09-19T01:59:34;15.10;99.90
3051;DHT22;1535;51.098;6.414;2023-09-19T02:02:03;15.10;99.90
3051;DHT22;1535;51.098;6.414;2023-09-19T02:04:32;15.10;99.90
3051;DHT22;1535;51.098;6.414;2023-09-19T02:07:00;15.10;99.90
3051;DHT22;1535;51.098;6.414;2023-09-19T02:09:28;15.10;99.90
3051;DHT22;1535;51.098;6.414;2023-09-19T02:11:55;15.10;99.90
3051;DHT22;1535;51.098;6.414;2023-09-19T02:14:22;15.00;99.90
3051;DHT22;1535;51.098;6.414;2023-09-19T02:16:50;15.00;99.90
3051;DHT22;1535;51.098;6.414;2023-09-19T02:19:18;15.00;99.90
3051;DHT22;1535;51.098;6.414;2023-09-19T02:21:47;14.90;99.90
3051;DHT22;1535;51.098;6.414;2023-09-19T02:24:15;14.90;99.90
3051;DHT22;1535;51.098;6.414;2023-09-19T02:26:42;14.90;99.90
3051;DHT22;1535;51.098;6.414;2023-09-19T02:29:10;14.90;99.90
3051;DHT22;1535;51.098;6.414;2023-09-19T02:31:40;14.90;99.90
3051;DHT22;1535;51.098;6.414;2023-09-19T02:34:08;14.90;99.90
3051;DHT22;1535;51.098;6.414;2023-09-19T02:36:38;14.80;99.90
3051;DHT22;1535;51.098;6.414;2023-09-19T02:39:05;14.70;99.90
3051;DHT22;1535;51.098;6.414;2023-09-19T02:41:34;14.70;99.90
3051;DHT22;1535;51.098;6.414;2023-09-19T02:44:03;14.80;99.90
3051;DHT22;1535;51.098;6.414;2023-09-19T02:46:34;14.70;99.90
3051;DHT22;1535;51.098;6.414;2023-09-19T02:49:02;14.80;99.90
3051;DHT22;1535;51.098;6.414;2023-09-19T02:51:30;14.70;99.90
3051;DHT22;1535;51.098;6.414;2023-09-19T02:54:00;14.70;99.90
3051;DHT22;1535;51.098;6.414;2023-09-19T02:56:28;14.70;99.90
3051;DHT22;1535;51.098;6.414;2023-09-19T02:58:56;14.70;99.90
3051;DHT22;1535;51.098;6.414;2023-09-19T03:01:23;14.60;99.90
3051;DHT22;1535;51.098;6.414;2023-09-19T03:03:50;14.60;99.90
3051;DHT22;1535;51.098;6.414;2023-09-19T03:06:18;14.60;99.90
3051;DHT22;1535;51.098;6.414;2023-09-19T03:08:45;14.60;99.90
3051;DHT22;1535;51.098;6.414;2023-09-19T03:11:15;14.50;99.90
3051;DHT22;1535;51.098;6.414;2023-09-19T03:13:44;14.50;99.90
3051;DHT22;1535;51.098;6.414;2023-09-19T03:16:13;14.50;99.90
3051;DHT22;1535;51.098;6.414;2023-09-19T03:18:40;14.50;99.90
3051;DHT22;1535;51.098;6.414;2023-09-19T03:21:07;14.50;99.90
3051;DHT22;1535;51.098;6.414;2023-09-19T03:23:34;14.50;99.90
3051;DHT22;1535;51.098;6.414;2023-09-19T03:26:00;14.40;99.90
3051;DHT22;1535;51.098;6.414;2023-09-19T03:28:29;14.40;99.90
3051;DHT22;1535;51.098;6.414;2023-09-19T03:30:59;14.40;99.90
3051;DHT22;1535;51.098;6.414;2023-09-19T03:33:27;14.40;99.90
3051;DHT22;1535;51.098;6.414;2023-09-19T03:35:54;14.40;99.90
3051;DHT22;1535;51.098;6.414;2023-09-19T03:38:25;14.40;99.90
3051;DHT22;1535;51.098;6.414;2023-09-19T03:40:52;14.40;99.90
3051;DHT22;1535;51.098;6.414;2023-09-19T03:43:19;14.40;99.90
3051;DHT22;1535;51.098;6.414;2023-09-19T03:45:47;14.40;99.90
3051;DHT22;1535;51.098;6.414;2023-09-19T03:48:16;14.40;99.90
3051;DHT22;1535;51.098;6.414;2023-09-19T03:50:43;14.30;99.90
3051;DHT22;1535;51.098;6.414;2023-09-19T03:53:10;14.40;99.90
3051;DHT22;1535;51.098;6.414;2023-09-19T03:55:37;14.40;99.90
3051;DHT22;1535;51.098;6.414;2023-09-19T03:58:04;14.40;99.90
3051;DHT22;1535;51.098;6.414;2023-09-19T04:00:31;14.40;99.90
3051;DHT22;1535;51.098;6.414;2023-09-19T04:03:03;14.40;99.90
3051;DHT22;1535;51.098;6.414;2023-09-19T04:05:31;14.40;99.90
3051;DHT22;1535;51.098;6.414;2023-09-19T04:07:59;14.40;99.90
3051;DHT22;1535;51.098;6.414;2023-09-19T04:10:26;14.40;99.90
3051;DHT22;1535;51.098;6.414;2023-09-19T04:12:53;14.40;99.90
3051;DHT22;1535;51.098;6.414;2023-09-19T04:15:22;14.40;99.90
3051;DHT22;1535;51.098;6.414;2023-09-19T04:17:49;14.40;99.90
3051;DHT22;1535;51.098;6.414;2023-09-19T04:20:18;14.40;99.90
3051;DHT22;1535;51.098;6.414;2023-09-19T04:22:45;14.40;99.90
3051;DHT22;1535;51.098;6.414;2023-09-19T04:25:13;14.40;99.90
3051;DHT22;1535;51.098;6.414;2023-09-19T04:27:40;14.40;99.90
3051;DHT22;1535;51.098;6.414;2023-09-19T04:30:09;14.40;99.90
3051;DHT22;1535;51.098;6.414;2023-09-19T04:32:38;14.40;99.90
3051;DHT22;1535;51.098;6.414;2023-09-19T04:35:07;14.40;99.90
3051;DHT22;1535;51.098;6.414;2023-09-19T04:37:38;14.30;99.90
3051;DHT22;1535;51.098;6.414;2023-09-19T04:40:07;14.30;99.90
3051;DHT22;1535;51.098;6.414;2023-09-19T04:42:39;14.40;99.90
3051;DHT22;1535;51.098;6.414;2023-09-19T04:45:09;14.30;99.90
3051;DHT22;1535;51.098;6.414;2023-09-19T04:47:36;14.40;99.90
3051;DHT22;1535;51.098;6.414;2023-09-19T04:50:06;14.40;99.90
3051;DHT22;1535;51.098;6.414;2023-09-19T04:52:34;14.40;99.90
3051;DHT22;1535;51.098;6.414;2023-09-19T04:55:02;14.40;99.90
3051;DHT22;1535;51.098;6.414;2023-09-19T04:57:29;14.40;99.90
3051;DHT22;1535;51.098;6.414;2023-09-19T04:59:57;14.50;99.90
3051;DHT22;1535;51.098;6.414;2023-09-19T05:02:24;14.50;99.90
3051;DHT22;1535;51.098;6.414;2023-09-19T05:04:51;14.50;99.90
3051;DHT22;1535;51.098;6.414;2023-09-19T05:07:19;14.60;99.90
3051;DHT22;1535;51.098;6.414;2023-09-19T05:09:47;14.60;99.90
3051;DHT22;1535;51.098;6.414;2023-09-19T05:12:16;14.70;99.90
3051;DHT22;1535;51.098;6.414;2023-09-19T05:14:45;14.70;99.90
3051;DHT22;1535;51.098;6.414;2023-09-19T05:17:13;14.70;99.90
3051;DHT22;1535;51.098;6.414;2023-09-19T05:19:42;14.70;99.90
3051;DHT22;1535;51.098;6.414;2023-09-19T05:22:10;14.70;99.90
3051;DHT22;1535;51.098;6.414;2023-09-19T05:24:38;14.70;99.90
3051;DHT22;1535;51.098;6.414;2023-09-19T05:27:05;14.70;99.90
3051;DHT22;1535;51.098;6.414;2023-09-19T05:29:34;14.70;99.90
3051;DHT22;1535;51.098;6.414;2023-09-19T05:32:01;14.70;99.90
3051;DHT22;1535;51.098;6.414;2023-09-19T05:34:29;14.70;99.90
3051;DHT22;1535;51.098;6.414;2023-09-19T05:36:56;14.70;99.90
3051;DHT22;1535;51.098;6.414;2023-09-19T05:39:24;14.80;99.90
3051;DHT22;1535;51.098;6.414;2023-09-19T05:41:51;14.80;99.90
3051;DHT22;1535;51.098;6.414;2023-09-19T05:44:19;14.90;99.90
3051;DHT22;1535;51.098;6.414;2023-09-19T05:46:47;14.90;99.90
3051;DHT22;1535;51.098;6.414;2023-09-19T05:49:15;14.90;99.90
3051;DHT22;1535;51.098;6.414;2023-09-19T05:51:44;14.90;99.90
3051;DHT22;1535;51.098;6.414;2023-09-19T05:54:13;14.80;99.90
3051;DHT22;1535;51.098;6.414;2023-09-19T05:56:41;14.80;99.90
3051;DHT22;1535;51.098;6.414;2023-09-19T05:59:09;14.90;99.90
3051;DHT22;1535;51.098;6.414;2023-09-19T06:01:36;14.90;99.90
3051;DHT22;1535;51.098;6.414;2023-09-19T06:04:05;15.00;99.90
3051;DHT22;1535;51.098;6.414;2023-09-19T06:06:32;14.90;99.90
3051;DHT22;1535;51.098;6.414;2023-09-19T06:09:02;14.90;99.90
3051;DHT22;1535;51.098;6.414;2023-09-19T06:11:31;14.80;99.90
3051;DHT22;1535;51.098;6.414;2023-09-19T06:14:00;14.80;99.90
3051;DHT22;1535;51.098;6.414;2023-09-19T06:16:27;14.90;99.90
3051;DHT22;1535;51.098;6.414;2023-09-19T06:18:54;15.00;99.90
3051;DHT22;1535;51.098;6.414;2023-09-19T06:21:24;15.00;99.90
3051;DHT22;1535;51.098;6.414;2023-09-19T06:23:52;15.10;99.90
3051;DHT22;1535;51.098;6.414;2023-09-19T06:26:19;15.10;99.90
3051;DHT22;1535;51.098;6.414;2023-09-19T06:28:46;15.00;99.90
3051;DHT22;1535;51.098;6.414;2023-09-19T06:31:13;15.00;99.90
3051;DHT22;1535;51.098;6.414;2023-09-19T06:33:40;15.00;99.90
3051;DHT22;1535;51.098;6.414;2023-09-19T06:36:08;15.00;99.90
3051;DHT22;1535;51.098;6.414;2023-09-19T06:38:38;15.00;99.90
3051;DHT22;1535;51.098;6.414;2023-09-19T06:41:06;15.10;99.90
3051;DHT22;1535;51.098;6.414;2023-09-19T06:43:35;15.10;99.90
3051;DHT22;1535;51.098;6.414;2023-09-19T06:46:01;15.20;99.90
3051;DHT22;1535;51.098;6.414;2023-09-19T06:48:29;15.20;99.90
3051;DHT22;1535;51.098;6.414;2023-09-19T06:50:56;15.20;99.90
3051;DHT22;1535;51.098;6.414;2023-09-19T06:53:28;15.30;99.90
3051;DHT22;1535;51.098;6.414;2023-09-19T06:55:58;15.20;99.90
3051;DHT22;1535;51.098;6.414;2023-09-19T06:58:25;15.30;99.90
3051;DHT22;1535;51.098;6.414;2023-09-19T07:00:52;15.20;99.90
3051;DHT22;1535;51.098;6.414;2023-09-19T07:03:19;15.30;99.90
3051;DHT22;1535;51.098;6.414;2023-09-19T07:05:48;15.40;99.90
3051;DHT22;1535;51.098;6.414;2023-09-19T07:08:15;15.40;99.90
3051;DHT22;1535;51.098;6.414;2023-09-19T07:10:43;15.40;99.90
3051;DHT22;1535;51.098;6.414;2023-09-19T07:13:15;15.50;99.90
3051;DHT22;1535;51.098;6.414;2023-09-19T07:15:43;15.60;99.90
3051;DHT22;1535;51.098;6.414;2023-09-19T07:18:13;15.60;99.90
3051;DHT22;1535;51.098;6.414;2023-09-19T07:20:40;15.60;99.90
3051;DHT22;1535;51.098;6.414;2023-09-19T07:23:15;15.70;99.90
3051;DHT22;1535;51.098;6.414;2023-09-19T07:25:44;15.80;99.90
3051;DHT22;1535;51.098;6.414;2023-09-19T07:28:11;15.90;99.90
3051;DHT22;1535;51.098;6.414;2023-09-19T07:30:40;15.90;99.90
3051;DHT22;1535;51.098;6.414;2023-09-19T07:33:07;16.00;99.90
3051;DHT22;1535;51.098;6.414;2023-09-19T07:35:36;15.80;99.90
3051;DHT22;1535;51.098;6.414;2023-09-19T07:38:05;15.90;99.90
3051;DHT22;1535;51.098;6.414;2023-09-19T07:40:32;16.10;99.90
3051;DHT22;1535;51.098;6.414;2023-09-19T07:43:00;16.40;99.90
3051;DHT22;1535;51.098;6.414;2023-09-19T07:45:27;16.30;99.90
3051;DHT22;1535;51.098;6.414;2023-09-19T07:47:56;16.40;99.90
3051;DHT22;1535;51.098;6.414;2023-09-19T07:50:25;16.40;99.90
3051;DHT22;1535;51.098;6.414;2023-09-19T07:52:52;16.40;99.90
3051;DHT22;1535;51.098;6.414;2023-09-19T07:55:22;16.50;99.90
3051;DHT22;1535;51.098;6.414;2023-09-19T07:57:50;16.70;99.90
3051;DHT22;1535;51.098;6.414;2023-09-19T08:00:18;16.60;99.90
3051;DHT22;1535;51.098;6.414;2023-09-19T08:02:45;16.50;99.90
3051;DHT22;1535;51.098;6.414;2023-09-19T08:05:14;16.60;99.90
3051;DHT22;1535;51.098;6.414;2023-09-19T08:07:44;16.70;99.90
3051;DHT22;1535;51.098;6.414;2023-09-19T08:10:14;16.90;99.90
3051;DHT22;1535;51.098;6.414;2023-09-19T08:12:46;16.90;99.90
3051;DHT22;1535;51.098;6.414;2023-09-19T08:15:14;16.90;99.90
3051;DHT22;1535;51.098;6.414;2023-09-19T08:17:41;16.90;99.90
3051;DHT22;1535;51.098;6.414;2023-09-19T08:20:09;17.10;99.90
3051;DHT22;1535;51.098;6.414;2023-09-19T08:22:43;17.10;99.90
3051;DHT22;1535;51.098;6.414;2023-09-19T08:25:13;17.30;99.90
3051;DHT22;1535;51.098;6.414;2023-09-19T08:27:41;17.30;99.90
3051;DHT22;1535;51.098;6.414;2023-09-19T08:30:10;17.40;99.90
3051;DHT22;1535;51.098;6.414;2023-09-19T08:32:37;17.40;99.90
3051;DHT22;1535;51.098;6.414;2023-09-19T08:35:06;17.40;99.90
3051;DHT22;1535;51.098;6.414;2023-09-19T08:37:34;17.50;99.90
3051;DHT22;1535;51.098;6.414;2023-09-19T08:40:04;17.70;99.90
3051;DHT22;1535;51.098;6.414;2023-09-19T08:42:47;17.80;99.90
3051;DHT22;1535;51.098;6.414;2023-09-19T08:45:15;17.90;99.90
3051;DHT22;1535;51.098;6.414;2023-09-19T08:47:46;18.00;99.90
3051;DHT22;1535;51.098;6.414;2023-09-19T08:50:19;18.10;99.90
3051;DHT22;1535;51.098;6.414;2023-09-19T08:52:51;18.20;99.90
3051;DHT22;1535;51.098;6.414;2023-09-19T08:55:23;18.30;99.90
3051;DHT22;1535;51.098;6.414;2023-09-19T08:57:59;18.20;99.90
3051;DHT22;1535;51.098;6.414;2023-09-19T09:00:28;18.30;99.90
3051;DHT22;1535;51.098;6.414;2023-09-19T09:02:56;18.30;99.90
3051;DHT22;1535;51.098;6.414;2023-09-19T09:05:25;18.40;99.90
3051;DHT22;1535;51.098;6.414;2023-09-19T09:07:52;18.30;99.90
3051;DHT22;1535;51.098;6.414;2023-09-19T09:10:23;18.30;99.90
3051;DHT22;1535;51.098;6.414;2023-09-19T09:12:52;18.30;99.90
3051;DHT22;1535;51.098;6.414;2023-09-19T09:15:21;18.60;99.90
3051;DHT22;1535;51.098;6.414;2023-09-19T09:17:48;18.70;99.90
3051;DHT22;1535;51.098;6.414;2023-09-19T09:20:16;18.80;99.90
3051;DHT22;1535;51.098;6.414;2023-09-19T09:22:51;18.90;99.90
3051;DHT22;1535;51.098;6.414;2023-09-19T09:25:20;18.70;99.90
3051;DHT22;1535;51.098;6.414;2023-09-19T09:28:01;18.60;99.90
3051;DHT22;1535;51.098;6.414;2023-09-19T09:30:36;18.80;99.90
3051;DHT22;1535;51.098;6.414;2023-09-19T09:33:10;18.80;99.90
3051;DHT22;1535;51.098;6.414;2023-09-19T09:35:37;19.00;99.90
3051;DHT22;1535;51.098;6.414;2023-09-19T09:38:13;19.20;99.90
3051;DHT22;1535;51.098;6.414;2023-09-19T09:40:49;19.30;99.90
3051;DHT22;1535;51.098;6.414;2023-09-19T09:43:35;19.30;99.90
3051;DHT22;1535;51.098;6.414;2023-09-19T09:46:11;19.60;99.90
3051;DHT22;1535;51.098;6.414;2023-09-19T09:48:56;19.80;99.90
3051;DHT22;1535;51.098;6.414;2023-09-19T09:51:37;20.00;99.90
3051;DHT22;1535;51.098;6.414;2023-09-19T09:54:11;20.10;99.90
3051;DHT22;1535;51.098;6.414;2023-09-19T09:56:52;20.50;99.90
3051;DHT22;1535;51.098;6.414;2023-09-19T09:59:21;20.60;99.90
3051;DHT22;1535;51.098;6.414;2023-09-19T10:01:49;20.90;99.90
3051;DHT22;1535;51.098;6.414;2023-09-19T10:04:27;20.50;99.90
3051;DHT22;1535;51.098;6.414;2023-09-19T10:06:57;20.80;99.90
3051;DHT22;1535;51.098;6.414;2023-09-19T10:09:44;20.90;99.90
3051;DHT22;1535;51.098;6.414;2023-09-19T10:12:13;21.00;99.90
3051;DHT22;1535;51.098;6.414;2023-09-19T10:14:45;21.10;99.90
3051;DHT22;1535;51.098;6.414;2023-09-19T10:17:14;20.90;99.90
3051;DHT22;1535;51.098;6.414;2023-09-19T10:19:51;20.70;99.90
3051;DHT22;1535;51.098;6.414;2023-09-19T10:22:23;20.70;99.90
3051;DHT22;1535;51.098;6.414;2023-09-19T10:24:52;20.80;99.90
3051;DHT22;1535;51.098;6.414;2023-09-19T10:27:20;20.60;99.90
3051;DHT22;1535;51.098;6.414;2023-09-19T10:29:49;20.50;99.90
3051;DHT22;1535;51.098;6.414;2023-09-19T10:32:16;20.30;99.90
3051;DHT22;1535;51.098;6.414;2023-09-19T10:34:47;20.20;99.90
3051;DHT22;1535;51.098;6.414;2023-09-19T10:37:16;20.30;99.90
3051;DHT22;1535;51.098;6.414;2023-09-19T10:39:46;20.30;99.90
3051;DHT22;1535;51.098;6.414;2023-09-19T10:42:20;20.60;99.90
3051;DHT22;1535;51.098;6.414;2023-09-19T10:44:52;20.60;99.90
3051;DHT22;1535;51.098;6.414;2023-09-19T10:47:20;20.40;99.90
3051;DHT22;1535;51.098;6.414;2023-09-19T10:49:50;20.00;99.90
3051;DHT22;1535;51.098;6.414;2023-09-19T10:52:22;20.10;99.90
3051;DHT22;1535;51.098;6.414;2023-09-19T10:54:54;19.90;99.90
3051;DHT22;1535;51.098;6.414;2023-09-19T10:57:25;20.00;99.90
3051;DHT22;1535;51.098;6.414;2023-09-19T11:00:06;20.20;99.90
3051;DHT22;1535;51.098;6.414;2023-09-19T11:03:18;20.80;99.90
3051;DHT22;1535;51.098;6.414;2023-09-19T11:06:04;21.10;99.90
3051;DHT22;1535;51.098;6.414;2023-09-19T11:08:57;21.10;99.90
3051;DHT22;1535;51.098;6.414;2023-09-19T11:11:46;21.20;99.90
3051;DHT22;1535;51.098;6.414;2023-09-19T11:14:38;21.20;99.90
3051;DHT22;1535;51.098;6.414;2023-09-19T11:17:35;21.40;99.90
3051;DHT22;1535;51.098;6.414;2023-09-19T11:20:22;21.50;99.90
3051;DHT22;1535;51.098;6.414;2023-09-19T11:23:21;21.90;99.90
3051;DHT22;1535;51.098;6.414;2023-09-19T11:25:52;22.10;99.90
3051;DHT22;1535;51.098;6.414;2023-09-19T11:28:33;22.60;99.90
3051;DHT22;1535;51.098;6.414;2023-09-19T11:34:45;22.20;99.90
3051;DHT22;1535;51.098;6.414;2023-09-19T11:40:28;22.70;99.90
3051;DHT22;1535;51.098;6.414;2023-09-19T11:42:56;22.80;99.90
3051;DHT22;1535;51.098;6.414;2023-09-19T11:48:27;22.80;99.90
3051;DHT22;1535;51.098;6.414;2023-09-19T11:50:57;23.10;99.90
3051;DHT22;1535;51.098;6.414;2023-09-19T11:53:31;23.00;99.90
3051;DHT22;1535;51.098;6.414;2023-09-19T11:56:02;22.70;99.90
3051;DHT22;1535;51.098;6.414;2023-09-19T11:58:32;22.90;99.90
3051;DHT22;1535;51.098;6.414;2023-09-19T12:01:02;23.00;99.90
3051;DHT22;1535;51.098;6.414;2023-09-19T12:03:36;23.00;99.90
3051;DHT22;1535;51.098;6.414;2023-09-19T12:06:12;23.30;99.90
3051;DHT22;1535;51.098;6.414;2023-09-19T12:08:42;23.50;99.90
3051;DHT22;1535;51.098;6.414;2023-09-19T12:11:16;23.60;99.90
3051;DHT22;1535;51.098;6.414;2023-09-19T12:13:44;23.90;99.90
3051;DHT22;1535;51.098;6.414;2023-09-19T12:16:15;24.10;99.90
3051;DHT22;1535;51.098;6.414;2023-09-19T12:18:44;24.10;99.90
3051;DHT22;1535;51.098;6.414;2023-09-19T12:21:27;23.80;99.90
3051;DHT22;1535;51.098;6.414;2023-09-19T12:24:04;23.70;99.90
3051;DHT22;1535;51.098;6.414;2023-09-19T12:26:38;23.90;99.90
3051;DHT22;1535;51.098;6.414;2023-09-19T12:29:13;23.80;99.90
3051;DHT22;1535;51.098;6.414;2023-09-19T12:31:53;23.70;99.90
3051;DHT22;1535;51.098;6.414;2023-09-19T12:34:24;24.40;99.90
3051;DHT22;1535;51.098;6.414;2023-09-19T12:37:10;24.10;99.90
3051;DHT22;1535;51.098;6.414;2023-09-19T12:39:47;24.10;99.90
3051;DHT22;1535;51.098;6.414;2023-09-19T12:42:17;24.40;99.90
3051;DHT22;1535;51.098;6.414;2023-09-19T12:44:47;24.50;99.90
3051;DHT22;1535;51.098;6.414;2023-09-19T12:47:15;24.40;99.90
3051;DHT22;1535;51.098;6.414;2023-09-19T12:50:09;23.80;99.90
3051;DHT22;1535;51.098;6.414;2023-09-19T12:52:45;23.60;99.90
3051;DHT22;1535;51.098;6.414;2023-09-19T12:55:23;23.60;99.90
3051;DHT22;1535;51.098;6.414;2023-09-19T12:58:08;24.00;99.90
3051;DHT22;1535;51.098;6.414;2023-09-19T13:00:37;24.00;99.90
3051;DHT22;1535;51.098;6.414;2023-09-19T13:03:18;23.70;99.90
3051;DHT22;1535;51.098;6.414;2023-09-19T13:05:49;24.40;99.90
3051;DHT22;1535;51.098;6.414;2023-09-19T13:08:28;24.40;99.90
3051;DHT22;1535;51.098;6.414;2023-09-19T13:11:09;24.40;99.90
3051;DHT22;1535;51.098;6.414;2023-09-19T13:13:39;24.30;99.90
3051;DHT22;1535;51.098;6.414;2023-09-19T13:16:08;24.10;99.90
3051;DHT22;1535;51.098;6.414;2023-09-19T13:18:46;24.30;99.90
3051;DHT22;1535;51.098;6.414;2023-09-19T13:21:17;23.50;99.90
3051;DHT22;1535;51.098;6.414;2023-09-19T13:23:55;23.50;99.90
3051;DHT22;1535;51.098;6.414;2023-09-19T13:26:24;23.50;99.90
3051;DHT22;1535;51.098;6.414;2023-09-19T13:28:51;23.40;99.90
3051;DHT22;1535;51.098;6.414;2023-09-19T13:31:19;23.20;99.90
3051;DHT22;1535;51.098;6.414;2023-09-19T13:33:48;22.50;99.90
3051;DHT22;1535;51.098;6.414;2023-09-19T13:36:16;22.40;99.90
3051;DHT22;1535;51.098;6.414;2023-09-19T13:38:44;22.00;99.90
3051;DHT22;1535;51.098;6.414;2023-09-19T13:41:14;22.00;99.90
3051;DHT22;1535;51.098;6.414;2023-09-19T13:43:42;21.80;99.90
3051;DHT22;1535;51.098;6.414;2023-09-19T13:46:14;21.80;99.90
3051;DHT22;1535;51.098;6.414;2023-09-19T13:48:42;21.70;99.90
3051;DHT22;1535;51.098;6.414;2023-09-19T13:51:09;22.00;99.90
3051;DHT22;1535;51.098;6.414;2023-09-19T13:53:36;22.00;99.90
3051;DHT22;1535;51.098;6.414;2023-09-19T13:56:04;22.10;99.90
3051;DHT22;1535;51.098;6.414;2023-09-19T13:58:31;22.10;99.90
3051;DHT22;1535;51.098;6.414;2023-09-19T14:00:59;21.80;99.90
3051;DHT22;1535;51.098;6.414;2023-09-19T14:03:26;22.10;99.90
3051;DHT22;1535;51.098;6.414;2023-09-19T14:05:55;22.30;99.90
3051;DHT22;1535;51.098;6.414;2023-09-19T14:08:22;22.70;99.90
3051;DHT22;1535;51.098;6.414;2023-09-19T14:10:49;23.00;99.90
3051;DHT22;1535;51.098;6.414;2023-09-19T14:13:17;23.10;99.90
3051;DHT22;1535;51.098;6.414;2023-09-19T14:15:45;22.50;99.90
3051;DHT22;1535;51.098;6.414;2023-09-19T14:18:13;22.20;99.90
3051;DHT22;1535;51.098;6.414;2023-09-19T14:20:40;22.40;99.90
3051;DHT22;1535;51.098;6.414;2023-09-19T14:23:07;22.50;99.90
3051;DHT22;1535;51.098;6.414;2023-09-19T14:25:34;22.50;99.90
3051;DHT22;1535;51.098;6.414;2023-09-19T14:28:02;21.90;99.90
3051;DHT22;1535;51.098;6.414;2023-09-19T14:30:29;21.60;99.90
3051;DHT22;1535;51.098;6.414;2023-09-19T14:32:57;21.60;99.90
3051;DHT22;1535;51.098;6.414;2023-09-19T14:35:24;21.50;99.90
3051;DHT22;1535;51.098;6.414;2023-09-19T14:37:51;21.40;99.90
3051;DHT22;1535;51.098;6.414;2023-09-19T14:40:18;21.30;99.90
3051;DHT22;1535;51.098;6.414;2023-09-19T14:42:45;21.10;99.90
3051;DHT22;1535;51.098;6.414;2023-09-19T14:45:12;20.90;99.90
3051;DHT22;1535;51.098;6.414;2023-09-19T14:47:42;20.80;99.90
3051;DHT22;1535;51.098;6.414;2023-09-19T14:50:11;20.80;99.90
3051;DHT22;1535;51.098;6.414;2023-09-19T14:52:39;20.90;99.90
3051;DHT22;1535;51.098;6.414;2023-09-19T14:55:07;21.00;99.90
3051;DHT22;1535;51.098;6.414;2023-09-19T14:57:34;21.00;99.90
3051;DHT22;1535;51.098;6.414;2023-09-19T15:00:07;20.90;99.90
3051;DHT22;1535;51.098;6.414;2023-09-19T15:02:38;20.80;99.90
3051;DHT22;1535;51.098;6.414;2023-09-19T15:05:07;20.60;99.90
3051;DHT22;1535;51.098;6.414;2023-09-19T15:07:36;20.60;99.90
3051;DHT22;1535;51.098;6.414;2023-09-19T15:10:04;20.50;99.90
3051;DHT22;1535;51.098;6.414;2023-09-19T15:12:35;20.50;99.90
3051;DHT22;1535;51.098;6.414;2023-09-19T15:15:04;20.50;99.90
3051;DHT22;1535;51.098;6.414;2023-09-19T15:17:33;20.60;99.90
3051;DHT22;1535;51.098;6.414;2023-09-19T15:20:01;20.60;99.90
3051;DHT22;1535;51.098;6.414;2023-09-19T15:22:28;20.50;99.90
3051;DHT22;1535;51.098;6.414;2023-09-19T15:24:56;20.40;99.90
3051;DHT22;1535;51.098;6.414;2023-09-19T15:27:23;20.50;99.90
3051;DHT22;1535;51.098;6.414;2023-09-19T15:29:50;20.90;99.90
3051;DHT22;1535;51.098;6.414;2023-09-19T15:32:17;21.10;99.90
3051;DHT22;1535;51.098;6.414;2023-09-19T15:34:44;21.20;99.90
3051;DHT22;1535;51.098;6.414;2023-09-19T15:37:10;21.10;99.90
3051;DHT22;1535;51.098;6.414;2023-09-19T15:39:37;21.10;99.90
3051;DHT22;1535;51.098;6.414;2023-09-19T15:42:06;21.20;99.90
3051;DHT22;1535;51.098;6.414;2023-09-19T15:44:33;21.20;99.90
3051;DHT22;1535;51.098;6.414;2023-09-19T15:47:02;21.10;99.90
3051;DHT22;1535;51.098;6.414;2023-09-19T15:49:29;21.10;99.90
3051;DHT22;1535;51.098;6.414;2023-09-19T15:51:56;21.20;99.90
3051;DHT22;1535;51.098;6.414;2023-09-19T15:54:25;21.40;99.90
3051;DHT22;1535;51.098;6.414;2023-09-19T15:56:53;22.00;99.90
3051;DHT22;1535;51.098;6.414;2023-09-19T15:59:23;22.80;99.90
3051;DHT22;1535;51.098;6.414;2023-09-19T16:01:50;23.10;99.90
3051;DHT22;1535;51.098;6.414;2023-09-19T16:04:17;23.10;99.90
3051;DHT22;1535;51.098;6.414;2023-09-19T16:06:44;23.10;99.90
3051;DHT22;1535;51.098;6.414;2023-09-19T16:09:11;23.50;99.90
3051;DHT22;1535;51.098;6.414;2023-09-19T16:11:40;23.60;99.90
3051;DHT22;1535;51.098;6.414;2023-09-19T16:14:07;23.70;99.90
3051;DHT22;1535;51.098;6.414;2023-09-19T16:16:36;23.80;99.90
3051;DHT22;1535;51.098;6.414;2023-09-19T16:19:04;23.80;99.90
3051;DHT22;1535;51.098;6.414;2023-09-19T16:21:36;23.80;99.90
3051;DHT22;1535;51.098;6.414;2023-09-19T16:24:06;23.60;99.90
3051;DHT22;1535;51.098;6.414;2023-09-19T16:26:35;23.60;99.90
3051;DHT22;1535;51.098;6.414;2023-09-19T16:29:02;23.70;99.90
3051;DHT22;1535;51.098;6.414;2023-09-19T16:31:31;23.10;99.90